createdAt,value
2019-02-28T00:00:21.501Z,9.83
2019-02-28T00:01:02.064Z,9.74
2019-02-28T00:01:46.022Z,9.76
2019-02-28T00:02:23.241Z,9.73
2019-02-28T00:03:03.795Z,9.77
2019-02-28T00:03:44.354Z,9.72
2019-02-28T00:04:24.982Z,9.77
2019-02-28T00:05:06.033Z,9.73
2019-02-28T00:05:46.139Z,9.76
2019-02-28T00:06:26.720Z,9.76
2019-02-28T00:07:07.306Z,9.76
2019-02-28T00:07:49.585Z,9.72
2019-02-28T00:08:28.467Z,9.69
2019-02-28T00:09:09.023Z,9.77
2019-02-28T00:09:49.602Z,9.69
2019-02-28T00:10:30.829Z,9.74
2019-02-28T00:11:10.743Z,9.69
2019-02-28T00:11:51.311Z,9.73
2019-02-28T00:12:31.883Z,9.72
2019-02-28T00:13:12.464Z,9.74
2019-02-28T00:13:55.803Z,9.73
2019-02-28T00:14:33.601Z,9.77
2019-02-28T00:15:14.176Z,9.73
2019-02-28T00:15:54.776Z,9.73
2019-02-28T00:16:36.314Z,9.72
2019-02-28T00:17:15.910Z,9.72
2019-02-28T00:17:56.527Z,9.76
2019-02-28T00:18:37.096Z,9.72
2019-02-28T00:19:17.643Z,9.64
2019-02-28T00:19:58.717Z,9.68
2019-02-28T00:20:38.801Z,9.79
2019-02-28T00:21:19.382Z,9.68
2019-02-28T00:21:59.943Z,9.77
2019-02-28T00:22:40.498Z,9.77
2019-02-28T00:23:21.929Z,9.66
2019-02-28T00:24:01.625Z,9.62
2019-02-28T00:24:42.223Z,9.66
2019-02-28T00:25:22.788Z,9.64
2019-02-28T00:26:03.361Z,9.65
2019-02-28T00:26:47.504Z,9.61
2019-02-28T00:27:24.571Z,9.65
2019-02-28T00:28:05.106Z,9.64
2019-02-28T00:28:45.670Z,9.68
2019-02-28T00:29:26.235Z,9.68
2019-02-28T00:30:06.909Z,9.51
2019-02-28T00:30:47.399Z,9.59
2019-02-28T00:31:27.960Z,9.54
2019-02-28T00:32:08.514Z,9.5
2019-02-28T00:32:49.086Z,9.5
2019-02-28T00:33:30.801Z,9.5
2019-02-28T00:34:10.219Z,9.48
2019-02-28T00:34:50.778Z,9.51
2019-02-28T00:35:31.359Z,9.55
2019-02-28T00:36:11.934Z,9.5
2019-02-28T00:36:53.331Z,9.5
2019-02-28T00:37:33.103Z,9.46
2019-02-28T00:38:13.684Z,9.43
2019-02-28T00:38:54.248Z,9.47
2019-02-28T00:39:35.529Z,9.41
2019-02-28T00:40:15.390Z,9.39
2019-02-28T00:40:55.986Z,9.39
2019-02-28T00:41:36.566Z,9.41
2019-02-28T00:42:17.644Z,9.37
2019-02-28T00:42:57.700Z,9.37
2019-02-28T00:43:38.316Z,9.36
2019-02-28T00:44:18.887Z,9.39
2019-02-28T00:45:02.130Z,9.34
2019-02-28T00:45:40.031Z,9.34
2019-02-28T00:46:20.594Z,9.31
2019-02-28T00:47:01.189Z,9.26
2019-02-28T00:47:41.747Z,9.26
2019-02-28T00:48:22.423Z,9.34
2019-02-28T00:49:02.883Z,9.31
2019-02-28T00:49:43.492Z,9.28
2019-02-28T00:50:24.066Z,9.29
2019-02-28T00:51:04.662Z,9.28
2019-02-28T00:51:45.301Z,9.29
2019-02-28T00:52:25.890Z,9.29
2019-02-28T00:53:07.377Z,9.26
2019-02-28T00:53:47.027Z,9.26
2019-02-28T00:54:27.609Z,9.22
2019-02-28T00:55:08.173Z,9.22
2019-02-28T00:55:48.747Z,9.23
2019-02-28T00:56:29.363Z,9.26
2019-02-28T00:57:09.926Z,9.28
2019-02-28T00:57:50.498Z,9.26
2019-02-28T00:58:31.067Z,9.22
2019-02-28T00:59:11.655Z,9.18
2019-02-28T00:59:52.219Z,9.22
2019-02-28T01:00:32.775Z,9.16
2019-02-28T01:01:13.361Z,9.25
2019-02-28T01:01:53.926Z,9.22
2019-02-28T01:02:34.508Z,9.23
2019-02-28T01:03:15.068Z,9.19
2019-02-28T01:03:57.938Z,9.18
2019-02-28T01:04:36.225Z,9.14
2019-02-28T01:05:16.797Z,9.25
2019-02-28T01:05:57.444Z,9.23
2019-02-28T01:06:38.038Z,9.19
2019-02-28T01:07:18.644Z,9.22
2019-02-28T01:07:59.232Z,9.19
2019-02-28T01:08:39.816Z,9.16
2019-02-28T01:09:20.421Z,9.1
2019-02-28T01:10:01.302Z,9.08
2019-02-28T01:10:41.567Z,9.06
2019-02-28T01:11:22.135Z,9.08
2019-02-28T01:12:02.691Z,9.1
2019-02-28T01:12:43.256Z,9.11
2019-02-28T01:13:27.061Z,9.11
2019-02-28T01:14:04.412Z,9.08
2019-02-28T01:14:44.982Z,9.13
2019-02-28T01:15:25.543Z,9.16
2019-02-28T01:16:06.142Z,9.14
2019-02-28T01:16:46.692Z,9.16
2019-02-28T01:17:27.434Z,9.08
2019-02-28T01:18:07.842Z,9.22
2019-02-28T01:18:48.435Z,9.21
2019-02-28T01:19:29.007Z,9.11
2019-02-28T01:20:14.724Z,9.14
2019-02-28T01:20:50.810Z,9.08
2019-02-28T01:21:30.689Z,9.11
2019-02-28T01:22:11.270Z,9.14
2019-02-28T01:22:51.833Z,9.03
2019-02-28T01:23:32.445Z,9.13
2019-02-28T01:24:13.005Z,9.13
2019-02-28T01:24:53.563Z,9.13
2019-02-28T01:25:34.129Z,9.13
2019-02-28T01:26:14.717Z,9.11
2019-02-28T01:26:55.271Z,9.08
2019-02-28T01:27:35.841Z,9.13
2019-02-28T01:28:16.423Z,9.04
2019-02-28T01:29:01.337Z,9.13
2019-02-28T01:29:37.621Z,9.06
2019-02-28T01:30:18.140Z,9.06
2019-02-28T01:30:58.690Z,9.13
2019-02-28T01:31:39.250Z,9.11
2019-02-28T01:32:19.814Z,9.18
2019-02-28T01:33:00.373Z,9.1
2019-02-28T01:33:40.985Z,9.08
2019-02-28T01:34:21.545Z,9.06
2019-02-28T01:35:05.582Z,9.1
2019-02-28T01:35:42.677Z,9.14
2019-02-28T01:36:23.261Z,9.06
2019-02-28T01:37:03.848Z,9.11
2019-02-28T01:37:44.396Z,9.03
2019-02-28T01:38:25.170Z,9.1
2019-02-28T01:39:05.575Z,9.18
2019-02-28T01:39:46.186Z,9.06
2019-02-28T01:40:26.765Z,9.13
2019-02-28T01:41:08.263Z,9.11
2019-02-28T01:41:47.876Z,9.1
2019-02-28T01:42:28.435Z,9.1
2019-02-28T01:43:09.013Z,9.08
2019-02-28T01:43:49.591Z,9.14
2019-02-28T01:44:30.170Z,9.1
2019-02-28T01:45:10.975Z,9.14
2019-02-28T01:45:51.284Z,9.1
2019-02-28T01:46:31.875Z,9.13
2019-02-28T01:47:12.403Z,9.18
2019-02-28T01:47:53.038Z,9.16
2019-02-28T01:48:33.572Z,9.14
2019-02-28T01:49:14.148Z,9.23
2019-02-28T01:49:57.685Z,9.16
2019-02-28T01:50:35.268Z,9.22
2019-02-28T01:51:15.894Z,9.19
2019-02-28T01:51:56.482Z,9.22
2019-02-28T01:52:37.075Z,9.23
2019-02-28T01:53:19.485Z,9.25
2019-02-28T01:53:58.214Z,9.14
2019-02-28T01:54:38.758Z,9.22
2019-02-28T01:55:19.328Z,9.25
2019-02-28T01:56:02.385Z,9.21
2019-02-28T01:56:40.493Z,9.32
2019-02-28T01:57:21.096Z,9.32
2019-02-28T01:58:01.652Z,9.26
2019-02-28T01:58:42.227Z,9.29
2019-02-28T01:59:22.801Z,9.36
2019-02-28T02:00:03.462Z,9.32
2019-02-28T02:00:43.958Z,9.37
2019-02-28T02:01:24.507Z,9.39
2019-02-28T02:02:06.618Z,9.4
2019-02-28T02:02:46.078Z,9.39
2019-02-28T02:03:26.627Z,9.39
2019-02-28T02:04:07.230Z,9.4
2019-02-28T02:04:47.773Z,9.37
2019-02-28T02:05:28.353Z,9.36
2019-02-28T02:06:08.941Z,9.41
2019-02-28T02:06:49.517Z,9.39
2019-02-28T02:07:30.501Z,9.36
2019-02-28T02:08:10.716Z,9.37
2019-02-28T02:08:51.297Z,9.37
2019-02-28T02:09:31.870Z,9.36
2019-02-28T02:10:12.431Z,9.31
2019-02-28T02:10:55.812Z,9.36
2019-02-28T02:11:33.549Z,9.39
2019-02-28T02:12:14.102Z,9.36
2019-02-28T02:12:54.654Z,9.39
2019-02-28T02:13:36.806Z,9.39
2019-02-28T02:14:15.845Z,9.41
2019-02-28T02:14:56.381Z,9.44
2019-02-28T02:15:36.950Z,9.47
2019-02-28T02:16:17.544Z,9.51
2019-02-28T02:16:58.195Z,9.37
2019-02-28T02:17:38.642Z,9.44
2019-02-28T02:18:19.207Z,9.44
2019-02-28T02:18:59.784Z,9.4
2019-02-28T02:19:40.382Z,9.48
2019-02-28T02:20:23.364Z,9.46
2019-02-28T02:21:01.530Z,9.46
2019-02-28T02:21:42.109Z,9.47
2019-02-28T02:22:22.702Z,9.47
2019-02-28T02:23:03.243Z,9.5
2019-02-28T02:23:43.826Z,9.47
2019-02-28T02:24:27.755Z,9.54
2019-02-28T02:25:04.973Z,9.44
2019-02-28T02:25:45.552Z,9.46
2019-02-28T02:26:26.202Z,9.51
2019-02-28T02:27:06.784Z,9.48
2019-02-28T02:27:47.423Z,9.51
2019-02-28T02:28:27.974Z,9.51
2019-02-28T02:29:08.531Z,9.56
2019-02-28T02:29:49.091Z,9.56
2019-02-28T02:30:29.674Z,9.55
2019-02-28T02:31:10.237Z,9.48
2019-02-28T02:31:50.794Z,9.55
2019-02-28T02:32:36.998Z,9.61
2019-02-28T02:33:14.357Z,9.62
2019-02-28T02:33:52.765Z,9.55
2019-02-28T02:34:33.087Z,9.62
2019-02-28T02:35:13.644Z,9.61
2019-02-28T02:35:54.220Z,9.61
2019-02-28T02:36:34.828Z,9.64
2019-02-28T02:37:15.373Z,9.59
2019-02-28T02:37:55.963Z,9.61
2019-02-28T02:38:41.361Z,9.62
2019-02-28T02:39:17.834Z,9.58
2019-02-28T02:39:57.673Z,9.65
2019-02-28T02:40:38.262Z,9.65
2019-02-28T02:41:18.904Z,9.61
2019-02-28T02:41:59.513Z,9.66
2019-02-28T02:42:47.116Z,9.68
2019-02-28T02:43:21.843Z,9.66
2019-02-28T02:44:01.202Z,9.68
2019-02-28T02:44:41.765Z,9.69
2019-02-28T02:45:22.317Z,9.69
2019-02-28T02:46:02.907Z,9.66
2019-02-28T02:46:43.481Z,9.61
2019-02-28T02:47:24.039Z,9.69
2019-02-28T02:48:05.503Z,9.68
2019-02-28T02:48:45.199Z,9.73
2019-02-28T02:49:25.771Z,9.69
2019-02-28T02:50:06.334Z,9.74
2019-02-28T02:50:46.905Z,9.73
2019-02-28T02:51:27.524Z,9.68
2019-02-28T02:52:08.098Z,9.65
2019-02-28T02:52:48.666Z,9.72
2019-02-28T02:53:29.229Z,9.65
2019-02-28T02:54:09.795Z,9.69
2019-02-28T02:54:52.037Z,9.68
2019-02-28T02:55:30.939Z,9.69
2019-02-28T02:56:11.496Z,9.73
2019-02-28T02:56:52.060Z,9.66
2019-02-28T02:57:32.658Z,9.68
2019-02-28T02:58:13.283Z,9.62
2019-02-28T02:58:53.921Z,9.68
2019-02-28T02:59:38.883Z,9.66
2019-02-28T03:00:15.360Z,9.69
2019-02-28T03:00:55.687Z,9.65
2019-02-28T03:01:36.270Z,9.72
2019-02-28T03:02:16.833Z,9.69
2019-02-28T03:02:57.405Z,9.61
2019-02-28T03:03:42.646Z,9.62
2019-02-28T03:04:22.815Z,9.65
2019-02-28T03:04:59.490Z,9.65
2019-02-28T03:05:39.653Z,9.61
2019-02-28T03:06:20.256Z,9.62
2019-02-28T03:07:00.832Z,9.68
2019-02-28T03:07:41.417Z,9.62
2019-02-28T03:08:21.963Z,9.65
2019-02-28T03:09:02.577Z,9.64
2019-02-28T03:09:43.636Z,9.68
2019-02-28T03:10:23.680Z,9.65
2019-02-28T03:11:04.286Z,9.66
2019-02-28T03:11:44.829Z,9.65
2019-02-28T03:12:25.392Z,9.66
2019-02-28T03:13:06.400Z,9.65
2019-02-28T03:13:46.544Z,9.58
2019-02-28T03:14:27.103Z,9.61
2019-02-28T03:15:07.771Z,9.64
2019-02-28T03:15:48.327Z,9.65
2019-02-28T03:16:32.936Z,9.65
2019-02-28T03:17:11.386Z,9.56
2019-02-28T03:17:50.051Z,9.58
2019-02-28T03:18:30.647Z,9.61
2019-02-28T03:19:11.209Z,9.61
2019-02-28T03:19:51.829Z,9.51
2019-02-28T03:20:32.370Z,9.51
2019-02-28T03:21:14.960Z,9.54
2019-02-28T03:21:53.499Z,9.48
2019-02-28T03:22:34.094Z,9.55
2019-02-28T03:23:14.666Z,9.5
2019-02-28T03:23:55.214Z,9.64
2019-02-28T03:24:35.757Z,9.48
2019-02-28T03:25:16.324Z,9.51
2019-02-28T03:25:56.887Z,9.62
2019-02-28T03:26:41.322Z,9.48
2019-02-28T03:27:18.941Z,9.59
2019-02-28T03:27:58.601Z,9.51
2019-02-28T03:28:39.164Z,9.58
2019-02-28T03:29:19.719Z,9.56
2019-02-28T03:30:00.444Z,9.5
2019-02-28T03:30:40.845Z,9.54
2019-02-28T03:31:21.426Z,9.51
2019-02-28T03:32:01.997Z,9.48
2019-02-28T03:32:42.992Z,9.48
2019-02-28T03:33:26.982Z,9.5
2019-02-28T03:34:12.683Z,9.55
2019-02-28T03:34:54.576Z,9.61
2019-02-28T03:35:25.806Z,9.51
2019-02-28T03:36:06.360Z,9.51
2019-02-28T03:36:54.977Z,9.56
2019-02-28T03:37:32.684Z,9.5
2019-02-28T03:38:11.232Z,9.58
2019-02-28T03:38:50.055Z,9.56
2019-02-28T03:39:29.239Z,9.62
2019-02-28T03:40:09.794Z,9.65
2019-02-28T03:40:50.412Z,9.72
2019-02-28T03:41:30.973Z,9.65
2019-02-28T03:42:11.534Z,9.61
2019-02-28T03:42:52.103Z,9.61
2019-02-28T03:43:32.684Z,9.61
2019-02-28T03:44:19.682Z,9.62
2019-02-28T03:44:56.922Z,9.61
2019-02-28T03:45:35.364Z,9.62
2019-02-28T03:46:14.987Z,9.59
2019-02-28T03:46:55.570Z,9.54
2019-02-28T03:47:36.144Z,9.61
2019-02-28T03:48:16.721Z,9.55
2019-02-28T03:48:57.304Z,9.54
2019-02-28T03:49:37.887Z,9.64
2019-02-28T03:50:21.847Z,9.54
2019-02-28T03:50:59.035Z,9.54
2019-02-28T03:51:39.652Z,9.61
2019-02-28T03:52:20.227Z,9.51
2019-02-28T03:53:00.800Z,9.55
2019-02-28T03:53:41.358Z,9.55
2019-02-28T03:54:21.889Z,9.5
2019-02-28T03:55:04.493Z,9.58
2019-02-28T03:55:43.057Z,9.51
2019-02-28T03:56:23.678Z,9.55
2019-02-28T03:57:04.248Z,9.46
2019-02-28T03:57:44.817Z,9.55
2019-02-28T03:58:25.478Z,9.55
2019-02-28T03:59:06.052Z,9.51
2019-02-28T03:59:46.657Z,9.5
2019-02-28T04:00:32.255Z,9.54
2019-02-28T04:01:09.288Z,9.46
2019-02-28T04:01:48.871Z,9.58
2019-02-28T04:02:29.440Z,9.5
2019-02-28T04:03:10.073Z,9.5
2019-02-28T04:03:50.583Z,9.51
2019-02-28T04:04:31.197Z,9.47
2019-02-28T04:05:11.792Z,9.54
2019-02-28T04:05:52.368Z,9.58
2019-02-28T04:06:39.128Z,9.51
2019-02-28T04:07:15.946Z,9.54
2019-02-28T04:07:54.989Z,9.51
2019-02-28T04:08:34.682Z,9.54
2019-02-28T04:09:15.259Z,9.59
2019-02-28T04:09:55.825Z,9.5
2019-02-28T04:10:36.385Z,9.55
2019-02-28T04:11:16.973Z,9.55
2019-02-28T04:11:57.531Z,9.47
2019-02-28T04:12:44.813Z,9.54
2019-02-28T04:13:19.475Z,9.54
2019-02-28T04:13:59.286Z,9.51
2019-02-28T04:14:39.896Z,9.54
2019-02-28T04:15:20.477Z,9.5
2019-02-28T04:16:08.238Z,9.51
2019-02-28T04:16:41.658Z,9.51
2019-02-28T04:17:22.277Z,9.5
2019-02-28T04:18:06.529Z,9.56
2019-02-28T04:18:45.845Z,9.54
2019-02-28T04:19:24.023Z,9.54
2019-02-28T04:20:04.587Z,9.5
2019-02-28T04:20:45.160Z,9.48
2019-02-28T04:21:25.735Z,9.51
2019-02-28T04:22:06.303Z,9.5
2019-02-28T04:22:46.889Z,9.5
2019-02-28T04:23:35.416Z,9.48
2019-02-28T04:24:12.360Z,9.5
2019-02-28T04:24:48.677Z,9.47
2019-02-28T04:25:29.209Z,9.55
2019-02-28T04:26:09.772Z,9.55
2019-02-28T04:26:50.316Z,9.54
2019-02-28T04:27:30.889Z,9.51
2019-02-28T04:28:16.798Z,9.5
2019-02-28T04:28:54.628Z,9.51
2019-02-28T04:29:32.615Z,9.47
2019-02-28T04:30:13.186Z,9.47
2019-02-28T04:30:53.774Z,9.43
2019-02-28T04:31:34.376Z,9.43
2019-02-28T04:32:14.969Z,9.43
2019-02-28T04:33:01.001Z,9.48
2019-02-28T04:33:38.821Z,9.37
2019-02-28T04:34:16.734Z,9.37
2019-02-28T04:34:57.329Z,9.4
2019-02-28T04:35:37.890Z,9.39
2019-02-28T04:36:18.452Z,9.4
2019-02-28T04:36:59.057Z,9.37
2019-02-28T04:37:44.543Z,9.41
2019-02-28T04:38:21.336Z,9.37
2019-02-28T04:39:00.809Z,9.37
2019-02-28T04:39:41.407Z,9.43
2019-02-28T04:40:23.990Z,9.4
2019-02-28T04:41:02.528Z,9.37
2019-02-28T04:41:43.130Z,9.39
2019-02-28T04:42:23.674Z,9.36
2019-02-28T04:43:04.238Z,9.41
2019-02-28T04:43:45.043Z,9.39
2019-02-28T04:44:25.395Z,9.4
2019-02-28T04:45:06.065Z,9.37
2019-02-28T04:45:46.696Z,9.36
2019-02-28T04:46:28.254Z,9.36
2019-02-28T04:47:07.885Z,9.37
2019-02-28T04:47:48.440Z,9.31
2019-02-28T04:48:28.971Z,9.29
2019-02-28T04:49:09.550Z,9.34
2019-02-28T04:49:50.131Z,9.31
2019-02-28T04:50:32.030Z,9.31
2019-02-28T04:51:11.257Z,9.31
2019-02-28T04:51:51.811Z,9.26
2019-02-28T04:52:32.368Z,9.22
2019-02-28T04:53:12.966Z,9.28
2019-02-28T04:53:53.820Z,9.23
2019-02-28T04:54:34.061Z,9.23
2019-02-28T04:55:14.610Z,9.29
2019-02-28T04:55:55.197Z,9.23
2019-02-28T04:56:35.729Z,9.18
2019-02-28T04:57:17.275Z,9.21
2019-02-28T04:57:56.866Z,9.23
2019-02-28T04:58:37.461Z,9.26
2019-02-28T04:59:18.042Z,9.23
2019-02-28T04:59:58.630Z,9.21
2019-02-28T05:00:39.226Z,9.18
2019-02-28T05:01:19.791Z,9.22
2019-02-28T05:02:00.378Z,9.14
2019-02-28T05:02:40.940Z,9.08
2019-02-28T05:03:21.520Z,9.16
2019-02-28T05:04:02.948Z,9.22
2019-02-28T05:04:42.723Z,9.26
2019-02-28T05:05:23.303Z,9.18
2019-02-28T05:06:03.862Z,9.25
2019-02-28T05:06:44.432Z,9.21
2019-02-28T05:07:26.230Z,9.25
2019-02-28T05:08:05.957Z,9.22
2019-02-28T05:08:46.178Z,9.23
2019-02-28T05:09:26.736Z,9.21
2019-02-28T05:10:07.316Z,9.23
2019-02-28T05:10:47.888Z,9.26
2019-02-28T05:11:30.555Z,9.19
2019-02-28T05:12:09.021Z,9.1
2019-02-28T05:12:49.569Z,9.21
2019-02-28T05:13:30.165Z,9.11
2019-02-28T05:14:10.719Z,9.1
2019-02-28T05:14:51.300Z,9.08
2019-02-28T05:15:37.183Z,9.08
2019-02-28T05:16:13.172Z,9.16
2019-02-28T05:16:53.053Z,9.1
2019-02-28T05:17:33.686Z,9.14
2019-02-28T05:18:14.235Z,9.08
2019-02-28T05:18:54.834Z,9.06
2019-02-28T05:19:35.689Z,9.13
2019-02-28T05:20:16.043Z,9.06
2019-02-28T05:20:56.640Z,9.1
2019-02-28T05:21:37.180Z,9.16
2019-02-28T05:22:17.778Z,9.14
2019-02-28T05:22:59.226Z,9.14
2019-02-28T05:23:38.960Z,9.13
2019-02-28T05:24:19.542Z,9.19
2019-02-28T05:25:00.231Z,9.23
2019-02-28T05:25:40.674Z,9.19
2019-02-28T05:26:23.402Z,9.18
2019-02-28T05:27:01.828Z,9.18
2019-02-28T05:27:42.543Z,9.11
2019-02-28T05:28:23.105Z,9.11
2019-02-28T05:29:03.673Z,9.11
2019-02-28T05:29:44.810Z,9.1
2019-02-28T05:30:24.843Z,9.08
2019-02-28T05:31:05.468Z,9.02
2019-02-28T05:31:46.053Z,9.1
2019-02-28T05:32:26.671Z,8.97
2019-02-28T05:33:07.470Z,9.13
2019-02-28T05:33:47.821Z,9.03
2019-02-28T05:34:28.428Z,8.97
2019-02-28T05:35:09.018Z,8.97
2019-02-28T05:35:49.554Z,8.95
2019-02-28T05:36:30.099Z,8.97
2019-02-28T05:37:12.449Z,8.91
2019-02-28T05:37:51.484Z,9.02
2019-02-28T05:38:32.229Z,8.94
2019-02-28T05:39:13.001Z,8.92
2019-02-28T05:39:53.866Z,8.97
2019-02-28T05:40:40.186Z,8.99
2019-02-28T05:41:16.024Z,8.95
2019-02-28T05:41:56.322Z,8.94
2019-02-28T05:42:37.180Z,8.95
2019-02-28T05:43:17.928Z,8.94
2019-02-28T05:43:58.684Z,9.06
2019-02-28T05:44:40.264Z,8.94
2019-02-28T05:45:20.905Z,8.95
2019-02-28T05:46:01.672Z,8.89
2019-02-28T05:46:42.269Z,8.95
2019-02-28T05:47:23.082Z,8.95
2019-02-28T05:48:04.638Z,8.97
2019-02-28T05:48:44.688Z,9.03
2019-02-28T05:49:25.423Z,8.92
2019-02-28T05:50:05.977Z,8.97
2019-02-28T05:50:46.933Z,8.95
2019-02-28T05:51:27.132Z,8.94
2019-02-28T05:52:07.703Z,8.95
2019-02-28T05:52:48.360Z,8.89
2019-02-28T05:53:29.176Z,8.92
2019-02-28T05:54:10.009Z,8.91
2019-02-28T05:54:51.421Z,8.89
2019-02-28T05:55:32.517Z,8.92
2019-02-28T05:56:12.269Z,8.95
2019-02-28T05:56:52.959Z,8.91
2019-02-28T05:57:33.777Z,8.92
2019-02-28T05:58:17.294Z,8.94
2019-02-28T05:58:55.168Z,8.94
2019-02-28T05:59:35.882Z,8.91
2019-02-28T06:00:16.613Z,8.94
2019-02-28T06:00:57.363Z,9
2019-02-28T06:01:38.255Z,8.95
2019-02-28T06:02:22.333Z,8.88
2019-02-28T06:03:00.004Z,8.92
2019-02-28T06:03:40.585Z,8.94
2019-02-28T06:04:21.173Z,8.95
2019-02-28T06:05:01.718Z,8.94
2019-02-28T06:05:43.406Z,8.92
2019-02-28T06:06:22.871Z,8.94
2019-02-28T06:07:03.437Z,8.88
2019-02-28T06:07:43.993Z,8.87
2019-02-28T06:08:24.582Z,8.89
2019-02-28T06:09:05.232Z,8.94
2019-02-28T06:09:48.656Z,8.87
2019-02-28T06:10:26.653Z,8.92
2019-02-28T06:11:07.477Z,8.94
2019-02-28T06:11:48.410Z,8.97
2019-02-28T06:12:29.239Z,8.95
2019-02-28T06:13:10.440Z,8.92
2019-02-28T06:13:52.665Z,8.91
2019-02-28T06:14:32.210Z,8.95
2019-02-28T06:15:13.136Z,8.88
2019-02-28T06:15:53.930Z,8.94
2019-02-28T06:16:34.763Z,8.89
2019-02-28T06:17:17.289Z,8.92
2019-02-28T06:17:56.438Z,8.91
2019-02-28T06:18:37.339Z,8.88
2019-02-28T06:19:19.682Z,8.94
2019-02-28T06:19:58.918Z,8.99
2019-02-28T06:20:39.856Z,8.97
2019-02-28T06:21:23.333Z,9.02
2019-02-28T06:22:01.405Z,8.95
2019-02-28T06:22:42.136Z,8.89
2019-02-28T06:23:22.762Z,9
2019-02-28T06:24:03.376Z,8.94
2019-02-28T06:24:44.733Z,8.94
2019-02-28T06:25:25.642Z,8.92
2019-02-28T06:26:05.294Z,8.97
2019-02-28T06:26:45.895Z,8.94
2019-02-28T06:27:26.501Z,9.1
2019-02-28T06:28:07.112Z,9.02
2019-02-28T06:28:47.956Z,9.08
2019-02-28T06:29:28.573Z,8.99
2019-02-28T06:30:09.512Z,8.99
2019-02-28T06:30:49.847Z,9.1
2019-02-28T06:31:30.993Z,9.1
2019-02-28T06:32:13.449Z,9.18
2019-02-28T06:32:57.607Z,9.4
2019-02-28T06:33:33.549Z,9.51
2019-02-28T06:34:13.595Z,9.69
2019-02-28T06:34:54.163Z,9.8
2019-02-28T06:35:34.728Z,9.97
2019-02-28T06:36:15.327Z,10.01
2019-02-28T06:36:55.943Z,10.05
2019-02-28T06:37:38.203Z,10.13
2019-02-28T06:38:19.172Z,10.2
2019-02-28T06:39:01.605Z,10.25
2019-02-28T06:39:44.331Z,10.33
2019-02-28T06:40:25.026Z,10.37
2019-02-28T06:41:07.514Z,10.49
2019-02-28T06:41:46.190Z,10.54
2019-02-28T06:42:26.772Z,10.48
2019-02-28T06:43:07.452Z,10.57
2019-02-28T06:43:50.195Z,10.61
2019-02-28T06:44:28.829Z,10.63
2019-02-28T06:45:09.400Z,10.67
2019-02-28T06:45:49.963Z,10.54
2019-02-28T06:46:30.581Z,10.38
2019-02-28T06:47:13.879Z,10.33
2019-02-28T06:47:51.793Z,10.26
2019-02-28T06:48:32.387Z,10.23
2019-02-28T06:49:13.024Z,10.15
2019-02-28T06:49:53.615Z,10.1
2019-02-28T06:50:34.213Z,10.1
2019-02-28T06:51:16.718Z,9.99
2019-02-28T06:51:55.413Z,10.01
2019-02-28T06:52:36.011Z,10.01
2019-02-28T06:53:16.580Z,9.94
2019-02-28T06:53:57.158Z,9.86
2019-02-28T06:54:39.827Z,9.82
2019-02-28T06:55:18.316Z,9.83
2019-02-28T06:55:58.892Z,9.73
2019-02-28T06:56:39.461Z,9.76
2019-02-28T06:57:20.043Z,9.74
2019-02-28T06:58:00.644Z,9.72
2019-02-28T06:58:41.199Z,9.74
2019-02-28T06:59:21.794Z,9.72
2019-02-28T07:00:02.404Z,9.69
2019-02-28T07:00:44.147Z,9.65
2019-02-28T07:01:23.612Z,9.61
2019-02-28T07:02:04.213Z,9.64
2019-02-28T07:02:44.822Z,9.59
2019-02-28T07:03:25.422Z,9.61
2019-02-28T07:04:06.063Z,9.61
2019-02-28T07:04:49.430Z,9.5
2019-02-28T07:05:27.232Z,9.54
2019-02-28T07:06:07.807Z,9.54
2019-02-28T07:06:48.403Z,9.54
2019-02-28T07:07:28.984Z,9.54
2019-02-28T07:08:09.568Z,9.56
2019-02-28T07:08:50.161Z,9.5
2019-02-28T07:09:33.529Z,9.5
2019-02-28T07:10:12.631Z,9.5
2019-02-28T07:10:51.852Z,9.51
2019-02-28T07:11:32.425Z,9.46
2019-02-28T07:12:13.308Z,9.44
2019-02-28T07:12:53.632Z,9.37
2019-02-28T07:13:38.743Z,9.4
2019-02-28T07:14:14.825Z,9.37
2019-02-28T07:14:55.463Z,9.37
2019-02-28T07:15:36.040Z,9.36
2019-02-28T07:16:16.626Z,9.32
2019-02-28T07:16:57.194Z,9.32
2019-02-28T07:17:37.762Z,9.25
2019-02-28T07:18:19.829Z,9.23
2019-02-28T07:18:58.908Z,9.19
2019-02-28T07:19:39.478Z,9.19
2019-02-28T07:20:20.053Z,9.22
2019-02-28T07:21:00.623Z,9.14
2019-02-28T07:21:43.849Z,9.21
2019-02-28T07:22:21.777Z,9.13
2019-02-28T07:23:02.360Z,9.1
2019-02-28T07:23:42.905Z,9.18
2019-02-28T07:24:23.494Z,9.14
2019-02-28T07:25:04.071Z,9.1
2019-02-28T07:25:47.324Z,9.14
2019-02-28T07:26:25.209Z,9.1
2019-02-28T07:27:05.779Z,9.14
2019-02-28T07:27:46.323Z,9.06
2019-02-28T07:28:26.875Z,9.1
2019-02-28T07:29:10.913Z,9.1
2019-02-28T07:29:47.981Z,9.19
2019-02-28T07:30:28.555Z,9.22
2019-02-28T07:31:09.125Z,9.22
2019-02-28T07:31:49.708Z,9.16
2019-02-28T07:32:31.271Z,9.25
2019-02-28T07:33:10.834Z,9.29
2019-02-28T07:33:51.473Z,9.34
2019-02-28T07:34:32.028Z,9.31
2019-02-28T07:35:12.583Z,9.31
2019-02-28T07:35:53.143Z,9.28
2019-02-28T07:36:33.717Z,9.34
2019-02-28T07:37:18.455Z,9.4
2019-02-28T07:37:54.988Z,9.31
2019-02-28T07:38:35.582Z,9.28
2019-02-28T07:39:16.163Z,9.29
2019-02-28T07:39:56.744Z,9.25
2019-02-28T07:40:37.313Z,9.32
2019-02-28T07:41:17.886Z,9.28
2019-02-28T07:41:58.785Z,9.32
2019-02-28T07:42:39.006Z,9.36
2019-02-28T07:43:19.592Z,9.39
2019-02-28T07:44:00.155Z,9.36
2019-02-28T07:44:40.732Z,9.34
2019-02-28T07:45:21.298Z,9.34
2019-02-28T07:46:04.418Z,9.39
2019-02-28T07:46:43.380Z,9.4
2019-02-28T07:47:23.013Z,9.36
2019-02-28T07:48:03.573Z,9.37
2019-02-28T07:48:44.155Z,9.37
2019-02-28T07:49:25.820Z,9.39
2019-02-28T07:50:07.606Z,9.39
2019-02-28T07:50:46.632Z,9.44
2019-02-28T07:51:26.539Z,9.51
2019-02-28T07:52:06.993Z,9.5
2019-02-28T07:52:47.657Z,9.48
2019-02-28T07:53:28.213Z,9.51
2019-02-28T07:54:08.782Z,9.66
2019-02-28T07:54:51.519Z,9.68
2019-02-28T07:55:30.383Z,9.84
2019-02-28T07:56:10.547Z,10.02
2019-02-28T07:56:51.060Z,10.22
2019-02-28T07:57:31.650Z,10.48
2019-02-28T07:58:12.229Z,10.75
2019-02-28T07:58:52.826Z,10.86
2019-02-28T07:59:33.369Z,10.96
2019-02-28T08:00:18.083Z,11.19
2019-02-28T08:00:54.644Z,11.35
2019-02-28T08:01:35.218Z,11.57
2019-02-28T08:02:16.457Z,11.7
2019-02-28T08:02:56.996Z,11.81
2019-02-28T08:03:37.562Z,11.88
2019-02-28T08:04:19.181Z,12
2019-02-28T08:04:58.726Z,12.09
2019-02-28T08:05:39.307Z,12.36
2019-02-28T08:06:19.864Z,12.45
2019-02-28T08:07:00.428Z,12.62
2019-02-28T08:07:41.028Z,12.86
2019-02-28T08:08:23.357Z,12.95
2019-02-28T08:09:04.801Z,13.16
2019-02-28T08:09:42.775Z,13.33
2019-02-28T08:10:23.398Z,13.37
2019-02-28T08:11:03.982Z,13.41
2019-02-28T08:11:44.560Z,13.56
2019-02-28T08:12:27.391Z,13.37
2019-02-28T08:13:05.708Z,13.5
2019-02-28T08:13:46.288Z,13.5
2019-02-28T08:14:26.872Z,13.44
2019-02-28T08:15:07.455Z,13.53
2019-02-28T08:15:48.048Z,13.56
2019-02-28T08:16:30.578Z,13.65
2019-02-28T08:17:09.943Z,13.81
2019-02-28T08:17:49.873Z,13.92
2019-02-28T08:18:31.639Z,14.05
2019-02-28T08:19:11.035Z,14.22
2019-02-28T08:19:51.619Z,14.32
2019-02-28T08:20:33.808Z,14.33
2019-02-28T08:21:12.760Z,14.36
2019-02-28T08:21:53.344Z,14.48
2019-02-28T08:22:33.927Z,14.45
2019-02-28T08:23:14.489Z,14.5
2019-02-28T08:23:55.059Z,14.66
2019-02-28T08:24:35.982Z,14.72
2019-02-28T08:25:16.227Z,14.84
2019-02-28T08:25:56.795Z,14.82
2019-02-28T08:26:37.364Z,14.96
2019-02-28T08:27:17.954Z,14.94
2019-02-28T08:27:59.641Z,15.06
2019-02-28T08:28:39.088Z,15.19
2019-02-28T08:29:19.656Z,15.27
2019-02-28T08:30:00.286Z,15.36
2019-02-28T08:30:40.827Z,15.35
2019-02-28T08:31:21.412Z,15.46
2019-02-28T08:32:06.508Z,15.51
2019-02-28T08:32:44.091Z,15.62
2019-02-28T08:33:23.167Z,15.67
2019-02-28T08:34:03.828Z,15.77
2019-02-28T08:34:46.745Z,15.75
2019-02-28T08:35:25.000Z,15.83
2019-02-28T08:36:11.208Z,15.86
2019-02-28T08:36:46.874Z,15.91
2019-02-28T08:37:26.838Z,15.9
2019-02-28T08:38:07.423Z,15.91
2019-02-28T08:38:48.020Z,15.84
2019-02-28T08:39:28.593Z,15.76
2019-02-28T08:40:09.168Z,15.84
2019-02-28T08:40:51.399Z,15.83
2019-02-28T08:41:30.359Z,15.98
2019-02-28T08:42:10.952Z,15.88
2019-02-28T08:42:51.532Z,15.92
2019-02-28T08:43:32.126Z,15.92
2019-02-28T08:44:12.774Z,16.05
2019-02-28T08:44:57.704Z,16.09
2019-02-28T08:45:34.498Z,16.23
2019-02-28T08:46:14.544Z,16.28
2019-02-28T08:46:55.124Z,16.42
2019-02-28T08:47:35.722Z,16.49
2019-02-28T08:48:16.278Z,16.56
2019-02-28T08:48:56.897Z,16.51
2019-02-28T08:49:41.861Z,16.56
2019-02-28T08:50:20.190Z,16.56
2019-02-28T08:50:58.684Z,16.56
2019-02-28T08:51:39.239Z,16.57
2019-02-28T08:52:19.804Z,16.5
2019-02-28T08:53:00.440Z,16.49
2019-02-28T08:53:41.085Z,16.33
2019-02-28T08:54:26.037Z,16.2
2019-02-28T08:55:02.787Z,16.2
2019-02-28T08:55:44.359Z,16.05
2019-02-28T08:56:23.477Z,15.92
2019-02-28T08:57:04.057Z,15.9
2019-02-28T08:57:54.141Z,15.8
2019-02-28T08:58:25.458Z,15.73
2019-02-28T08:59:11.710Z,15.72
2019-02-28T08:59:46.639Z,15.59